sensor_id;sensor_type;location;lat;lon;timestamp;pressure;altitude;pressure_sealevel;temperature;humidity
73063;BME280;61230;46.328;19.972;2023-01-01T00:01:13;101846.16;;;7.23;100.00
73063;BME280;61230;46.328;19.972;2023-01-01T00:03:41;101850.59;;;7.21;100.00
73063;BME280;61230;46.328;19.972;2023-01-01T00:06:11;101844.53;;;7.21;100.00
73063;BME280;61230;46.328;19.972;2023-01-01T00:08:39;101846.38;;;7.19;100.00
73063;BME280;61230;46.328;19.972;2023-01-01T00:11:08;101850.00;;;7.16;100.00
73063;BME280;61230;46.328;19.972;2023-01-01T00:13:38;101850.75;;;7.18;100.00
73063;BME280;61230;46.328;19.972;2023-01-01T00:16:13;101864.81;;;7.17;100.00
73063;BME280;61230;46.328;19.972;2023-01-01T00:18:40;101868.44;;;7.15;100.00
73063;BME280;61230;46.328;19.972;2023-01-01T00:21:11;101856.16;;;7.15;100.00
73063;BME280;61230;46.328;19.972;2023-01-01T00:23:39;101857.13;;;7.14;100.00
73063;BME280;61230;46.328;19.972;2023-01-01T00:26:12;101868.50;;;7.13;100.00
73063;BME280;61230;46.328;19.972;2023-01-01T00:28:40;101870.19;;;7.14;100.00
73063;BME280;61230;46.328;19.972;2023-01-01T00:33:34;101867.75;;;7.11;100.00
73063;BME280;61230;46.328;19.972;2023-01-01T00:36:10;101871.28;;;7.10;100.00
73063;BME280;61230;46.328;19.972;2023-01-01T00:38:38;101875.75;;;7.08;100.00
73063;BME280;61230;46.328;19.972;2023-01-01T00:41:06;101872.38;;;7.06;100.00
73063;BME280;61230;46.328;19.972;2023-01-01T00:43:33;101874.37;;;7.01;100.00
73063;BME280;61230;46.328;19.972;2023-01-01T00:46:02;101889.44;;;6.98;100.00
73063;BME280;61230;46.328;19.972;2023-01-01T00:48:31;101886.19;;;6.92;100.00
73063;BME280;61230;46.328;19.972;2023-01-01T00:50:59;101893.12;;;6.93;100.00
73063;BME280;61230;46.328;19.972;2023-01-01T00:53:27;101896.00;;;6.89;100.00
73063;BME280;61230;46.328;19.972;2023-01-01T00:55:55;101890.75;;;6.89;100.00
73063;BME280;61230;46.328;19.972;2023-01-01T00:58:24;101892.53;;;6.88;100.00
73063;BME280;61230;46.328;19.972;2023-01-01T01:00:52;101884.69;;;6.88;100.00
73063;BME280;61230;46.328;19.972;2023-01-01T01:03:20;101890.81;;;6.87;100.00
73063;BME280;61230;46.328;19.972;2023-01-01T01:06:05;101884.00;;;6.85;100.00
73063;BME280;61230;46.328;19.972;2023-01-01T01:08:37;101874.78;;;6.78;100.00
73063;BME280;61230;46.328;19.972;2023-01-01T01:13:34;101883.28;;;6.81;100.00
73063;BME280;61230;46.328;19.972;2023-01-01T01:16:22;101886.84;;;6.80;100.00
73063;BME280;61230;46.328;19.972;2023-01-01T01:18:52;101883.44;;;6.78;100.00
73063;BME280;61230;46.328;19.972;2023-01-01T01:21:23;101879.38;;;6.73;100.00
73063;BME280;61230;46.328;19.972;2023-01-01T01:23:51;101877.72;;;6.72;100.00
73063;BME280;61230;46.328;19.972;2023-01-01T01:26:23;101874.31;;;6.70;100.00
73063;BME280;61230;46.328;19.972;2023-01-01T01:28:51;101873.66;;;6.66;100.00
73063;BME280;61230;46.328;19.972;2023-01-01T01:31:20;101869.44;;;6.64;100.00
73063;BME280;61230;46.328;19.972;2023-01-01T01:33:49;101877.34;;;6.62;100.00
73063;BME280;61230;46.328;19.972;2023-01-01T01:36:17;101873.13;;;6.60;100.00
73063;BME280;61230;46.328;19.972;2023-01-01T01:38:46;101871.50;;;6.57;100.00
73063;BME280;61230;46.328;19.972;2023-01-01T01:41:16;101874.13;;;6.57;100.00
73063;BME280;61230;46.328;19.972;2023-01-01T01:44:00;101873.44;;;6.54;100.00
73063;BME280;61230;46.328;19.972;2023-01-01T01:46:33;101868.38;;;6.51;100.00
73063;BME280;61230;46.328;19.972;2023-01-01T01:49:12;101863.28;;;6.48;100.00
73063;BME280;61230;46.328;19.972;2023-01-01T01:51:41;101836.78;;;6.38;100.00
73063;BME280;61230;46.328;19.972;2023-01-01T01:54:14;101857.41;;;6.44;100.00
73063;BME280;61230;46.328;19.972;2023-01-01T01:59:21;101857.00;;;6.34;100.00
73063;BME280;61230;46.328;19.972;2023-01-01T02:01:51;101861.47;;;6.32;100.00
73063;BME280;61230;46.328;19.972;2023-01-01T02:04:20;101855.31;;;6.33;100.00
73063;BME280;61230;46.328;19.972;2023-01-01T02:06:49;101852.84;;;6.30;100.00
73063;BME280;61230;46.328;19.972;2023-01-01T02:09:17;101842.09;;;6.19;100.00
73063;BME280;61230;46.328;19.972;2023-01-01T02:11:45;101849.78;;;6.22;100.00
73063;BME280;61230;46.328;19.972;2023-01-01T02:14:12;101844.66;;;6.21;100.00
73063;BME280;61230;46.328;19.972;2023-01-01T02:16:54;101848.28;;;6.18;100.00
73063;BME280;61230;46.328;19.972;2023-01-01T02:27:47;101868.22;;;6.19;100.00
73063;BME280;61230;46.328;19.972;2023-01-01T02:30:19;101868.22;;;6.19;100.00
73063;BME280;61230;46.328;19.972;2023-01-01T02:33:00;101870.69;;;6.22;100.00
73063;BME280;61230;46.328;19.972;2023-01-01T02:35:39;101867.06;;;6.25;100.00
73063;BME280;61230;46.328;19.972;2023-01-01T02:40:41;101865.91;;;6.30;100.00
73063;BME280;61230;46.328;19.972;2023-01-01T02:43:10;101869.38;;;6.31;100.00
73063;BME280;61230;46.328;19.972;2023-01-01T02:45:38;101872.09;;;6.29;100.00
73063;BME280;61230;46.328;19.972;2023-01-01T02:48:36;101879.00;;;6.30;100.00
73063;BME280;61230;46.328;19.972;2023-01-01T02:51:16;101886.16;;;6.27;100.00
73063;BME280;61230;46.328;19.972;2023-01-01T02:53:58;101883.69;;;6.24;100.00
73063;BME280;61230;46.328;19.972;2023-01-01T02:56:36;101883.63;;;6.25;100.00
73063;BME280;61230;46.328;19.972;2023-01-01T02:59:16;101875.88;;;6.24;100.00
73063;BME280;61230;46.328;19.972;2023-01-01T03:05:33;101878.63;;;6.21;100.00
73063;BME280;61230;46.328;19.972;2023-01-01T03:08:12;101875.78;;;6.25;100.00
73063;BME280;61230;46.328;19.972;2023-01-01T03:10:49;101888.94;;;6.24;100.00
73063;BME280;61230;46.328;19.972;2023-01-01T03:13:39;101887.31;;;6.21;100.00
73063;BME280;61230;46.328;19.972;2023-01-01T03:16:23;101880.38;;;6.20;100.00
73063;BME280;61230;46.328;19.972;2023-01-01T03:21:49;101885.00;;;6.15;100.00
73063;BME280;61230;46.328;19.972;2023-01-01T03:24:39;101886.97;;;6.10;100.00
73063;BME280;61230;46.328;19.972;2023-01-01T03:27:12;101891.44;;;6.08;100.00
73063;BME280;61230;46.328;19.972;2023-01-01T03:29:43;101886.38;;;6.05;100.00
73063;BME280;61230;46.328;19.972;2023-01-01T03:32:15;101873.59;;;5.99;100.00
73063;BME280;61230;46.328;19.972;2023-01-01T03:34:51;101885.47;;;6.06;100.00
73063;BME280;61230;46.328;19.972;2023-01-01T03:37:25;101889.94;;;6.04;100.00
73063;BME280;61230;46.328;19.972;2023-01-01T03:39:58;101888.97;;;6.05;100.00
73063;BME280;61230;46.328;19.972;2023-01-01T03:42:40;101888.13;;;6.05;100.00
73063;BME280;61230;46.328;19.972;2023-01-01T03:45:18;101891.59;;;6.05;100.00
73063;BME280;61230;46.328;19.972;2023-01-01T03:47:46;101889.12;;;6.02;100.00
73063;BME280;61230;46.328;19.972;2023-01-01T03:50:14;101894.44;;;6.01;100.00
73063;BME280;61230;46.328;19.972;2023-01-01T03:53:02;101890.13;;;6.00;100.00
73063;BME280;61230;46.328;19.972;2023-01-01T03:55:56;101892.03;;;5.96;100.00
73063;BME280;61230;46.328;19.972;2023-01-01T03:58:38;101881.13;;;5.88;100.00
73063;BME280;61230;46.328;19.972;2023-01-01T04:01:13;101895.59;;;5.95;100.00
73063;BME280;61230;46.328;19.972;2023-01-01T04:03:43;101888.66;;;5.94;100.00
73063;BME280;61230;46.328;19.972;2023-01-01T04:06:11;101886.97;;;5.93;100.00
73063;BME280;61230;46.328;19.972;2023-01-01T04:08:39;101887.81;;;5.94;100.00
73063;BME280;61230;46.328;19.972;2023-01-01T04:11:14;101879.12;;;5.93;100.00
73063;BME280;61230;46.328;19.972;2023-01-01T04:14:02;101882.59;;;5.94;100.00
73063;BME280;61230;46.328;19.972;2023-01-01T04:16:30;101885.28;;;5.92;100.00
73063;BME280;61230;46.328;19.972;2023-01-01T04:18:57;101887.81;;;5.94;100.00
73063;BME280;61230;46.328;19.972;2023-01-01T04:21:25;101893.88;;;5.94;100.00
73063;BME280;61230;46.328;19.972;2023-01-01T04:23:53;101892.97;;;5.95;100.00
73063;BME280;61230;46.328;19.972;2023-01-01T04:26:20;101888.66;;;5.94;100.00
73063;BME280;61230;46.328;19.972;2023-01-01T04:28:48;101890.53;;;5.92;100.00
73063;BME280;61230;46.328;19.972;2023-01-01T04:31:15;101898.25;;;5.94;100.00
73063;BME280;61230;46.328;19.972;2023-01-01T04:33:43;101898.13;;;5.97;100.00
73063;BME280;61230;46.328;19.972;2023-01-01T04:36:10;101895.59;;;5.95;100.00
73063;BME280;61230;46.328;19.972;2023-01-01T04:38:38;101898.25;;;5.94;100.00
73063;BME280;61230;46.328;19.972;2023-01-01T04:41:08;101904.34;;;5.94;100.00
73063;BME280;61230;46.328;19.972;2023-01-01T04:43:35;101907.03;;;5.93;100.00
73063;BME280;61230;46.328;19.972;2023-01-01T04:46:03;101910.47;;;5.93;100.00
73063;BME280;61230;46.328;19.972;2023-01-01T04:48:34;101917.50;;;5.93;100.00
73063;BME280;61230;46.328;19.972;2023-01-01T04:51:03;101914.87;;;5.93;100.00
73063;BME280;61230;46.328;19.972;2023-01-01T04:53:33;101917.41;;;5.94;100.00
73063;BME280;61230;46.328;19.972;2023-01-01T04:56:15;101918.41;;;5.92;100.00
73063;BME280;61230;46.328;19.972;2023-01-01T04:58:43;101921.87;;;5.92;100.00
73063;BME280;61230;46.328;19.972;2023-01-01T05:01:22;101908.34;;;5.82;100.00
73063;BME280;61230;46.328;19.972;2023-01-01T05:03:52;101924.69;;;5.88;100.00
73063;BME280;61230;46.328;19.972;2023-01-01T05:06:20;101921.41;;;5.82;100.00
73063;BME280;61230;46.328;19.972;2023-01-01T05:08:49;101918.09;;;5.79;100.00
73063;BME280;61230;46.328;19.972;2023-01-01T05:11:20;101922.56;;;5.77;100.00
73063;BME280;61230;46.328;19.972;2023-01-01T05:13:49;101928.06;;;5.71;100.00
73063;BME280;61230;46.328;19.972;2023-01-01T05:16:20;101915.25;;;5.66;100.00
73063;BME280;61230;46.328;19.972;2023-01-01T05:18:49;101924.13;;;5.62;100.00
73063;BME280;61230;46.328;19.972;2023-01-01T05:21:26;101935.69;;;5.57;100.00
73063;BME280;61230;46.328;19.972;2023-01-01T05:23:56;101925.63;;;5.49;100.00
73063;BME280;61230;46.328;19.972;2023-01-01T05:26:28;101936.13;;;5.48;100.00
73063;BME280;61230;46.328;19.972;2023-01-01T05:28:57;101938.25;;;5.40;100.00
73063;BME280;61230;46.328;19.972;2023-01-01T05:31:27;101936.97;;;5.30;100.00
73063;BME280;61230;46.328;19.972;2023-01-01T05:33:56;101932.81;;;5.26;100.00
73063;BME280;61230;46.328;19.972;2023-01-01T05:36:26;101927.88;;;5.19;100.00
73063;BME280;61230;46.328;19.972;2023-01-01T05:38:54;101929.66;;;5.19;100.00
73063;BME280;61230;46.328;19.972;2023-01-01T05:41:22;101928.84;;;5.17;100.00
73063;BME280;61230;46.328;19.972;2023-01-01T05:43:51;101941.06;;;5.16;100.00
73063;BME280;61230;46.328;19.972;2023-01-01T05:46:21;101943.75;;;5.15;100.00
73063;BME280;61230;46.328;19.972;2023-01-01T05:48:50;101944.59;;;5.15;100.00
73063;BME280;61230;46.328;19.972;2023-01-01T05:51:21;101952.41;;;5.15;100.00
73063;BME280;61230;46.328;19.972;2023-01-01T05:53:50;101937.66;;;5.14;100.00
73063;BME280;61230;46.328;19.972;2023-01-01T05:56:18;101928.63;;;5.03;100.00
73063;BME280;61230;46.328;19.972;2023-01-01T05:58:46;101943.09;;;5.10;100.00
73063;BME280;61230;46.328;19.972;2023-01-01T06:01:25;101944.88;;;5.09;100.00
73063;BME280;61230;46.328;19.972;2023-01-01T06:03:54;101947.38;;;5.11;100.00
73063;BME280;61230;46.328;19.972;2023-01-01T06:06:28;101947.47;;;5.09;100.00
73063;BME280;61230;46.328;19.972;2023-01-01T06:08:58;101950.00;;;5.11;100.00
73063;BME280;61230;46.328;19.972;2023-01-01T06:11:27;101954.38;;;5.10;100.00
73063;BME280;61230;46.328;19.972;2023-01-01T06:13:56;101961.28;;;5.11;100.00
73063;BME280;61230;46.328;19.972;2023-01-01T06:16:25;101964.88;;;5.09;100.00
73063;BME280;61230;46.328;19.972;2023-01-01T06:18:53;101957.81;;;5.11;100.00
73063;BME280;61230;46.328;19.972;2023-01-01T06:21:23;101950.97;;;5.08;100.00
73063;BME280;61230;46.328;19.972;2023-01-01T06:23:51;101957.19;;;5.06;100.00
73063;BME280;61230;46.328;19.972;2023-01-01T06:26:23;101958.00;;;5.08;100.00
73063;BME280;61230;46.328;19.972;2023-01-01T06:28:51;101961.41;;;5.08;100.00
73063;BME280;61230;46.328;19.972;2023-01-01T06:31:20;101957.31;;;5.03;100.00
73063;BME280;61230;46.328;19.972;2023-01-01T06:33:48;101970.09;;;5.09;100.00
73063;BME280;61230;46.328;19.972;2023-01-01T06:36:19;101966.59;;;5.10;100.00
73063;BME280;61230;46.328;19.972;2023-01-01T06:38:50;101956.06;;;5.11;100.00
73063;BME280;61230;46.328;19.972;2023-01-01T06:41:21;101957.69;;;5.14;100.00
73063;BME280;61230;46.328;19.972;2023-01-01T06:43:49;101960.25;;;5.15;100.00
73063;BME280;61230;46.328;19.972;2023-01-01T06:46:17;101960.09;;;5.18;100.00
73063;BME280;61230;46.328;19.972;2023-01-01T06:48:48;101964.25;;;5.22;100.00
73063;BME280;61230;46.328;19.972;2023-01-01T06:51:21;101965.19;;;5.21;100.00
73063;BME280;61230;46.328;19.972;2023-01-01T06:53:50;101967.66;;;5.25;100.00
73063;BME280;61230;46.328;19.972;2023-01-01T06:56:18;101967.41;;;5.31;100.00
73063;BME280;61230;46.328;19.972;2023-01-01T06:58:46;101969.03;;;5.33;100.00
73063;BME280;61230;46.328;19.972;2023-01-01T07:01:23;101971.50;;;5.36;100.00
73063;BME280;61230;46.328;19.972;2023-01-01T07:04:03;101968.56;;;5.42;100.00
73063;BME280;61230;46.328;19.972;2023-01-01T07:06:32;101960.47;;;5.48;100.00
73063;BME280;61230;46.328;19.972;2023-01-01T07:08:59;101966.25;;;5.55;100.00
73063;BME280;61230;46.328;19.972;2023-01-01T07:11:28;101964.22;;;5.61;100.00
73063;BME280;61230;46.328;19.972;2023-01-01T07:13:56;101966.38;;;5.70;100.00
73063;BME280;61230;46.328;19.972;2023-01-01T07:16:24;101971.28;;;5.78;100.00
73063;BME280;61230;46.328;19.972;2023-01-01T07:18:53;101971.88;;;5.83;100.00
73063;BME280;61230;46.328;19.972;2023-01-01T07:24:00;101964.91;;;6.02;100.00
73063;BME280;61230;46.328;19.972;2023-01-01T07:26:30;101971.38;;;6.12;100.00
73063;BME280;61230;46.328;19.972;2023-01-01T07:28:58;101963.09;;;6.21;100.00
73063;BME280;61230;46.328;19.972;2023-01-01T07:31:38;101982.78;;;6.28;100.00
73063;BME280;61230;46.328;19.972;2023-01-01T07:34:11;101971.88;;;6.37;100.00
73063;BME280;61230;46.328;19.972;2023-01-01T07:36:40;101971.44;;;6.47;100.00
73063;BME280;61230;46.328;19.972;2023-01-01T07:39:08;101958.25;;;6.48;100.00
73063;BME280;61230;46.328;19.972;2023-01-01T07:41:36;101973.19;;;6.63;100.00
73063;BME280;61230;46.328;19.972;2023-01-01T07:44:04;101978.13;;;6.69;100.00
73063;BME280;61230;46.328;19.972;2023-01-01T07:46:35;101976.81;;;6.78;100.00
73063;BME280;61230;46.328;19.972;2023-01-01T07:49:03;101983.41;;;6.85;100.00
73063;BME280;61230;46.328;19.972;2023-01-01T07:51:31;101971.00;;;6.88;100.00
73063;BME280;61230;46.328;19.972;2023-01-01T07:53:59;101974.78;;;7.00;100.00
73063;BME280;61230;46.328;19.972;2023-01-01T07:56:34;101968.22;;;7.09;100.00
73063;BME280;61230;46.328;19.972;2023-01-01T07:59:02;101972.13;;;7.17;100.00
73063;BME280;61230;46.328;19.972;2023-01-01T08:01:30;101969.09;;;7.25;100.00
73063;BME280;61230;46.328;19.972;2023-01-01T08:03:58;101969.63;;;7.31;100.00
73063;BME280;61230;46.328;19.972;2023-01-01T08:06:26;101970.22;;;7.36;100.00
73063;BME280;61230;46.328;19.972;2023-01-01T08:08:53;101971.47;;;7.45;100.00
73063;BME280;61230;46.328;19.972;2023-01-01T08:11:21;101978.91;;;7.52;100.00
73063;BME280;61230;46.328;19.972;2023-01-01T08:13:49;101974.88;;;7.63;100.00
73063;BME280;61230;46.328;19.972;2023-01-01T08:16:17;101984.94;;;7.70;100.00
73063;BME280;61230;46.328;19.972;2023-01-01T08:18:45;101980.97;;;7.79;100.00
73063;BME280;61230;46.328;19.972;2023-01-01T08:21:13;101983.78;;;7.91;100.00
73063;BME280;61230;46.328;19.972;2023-01-01T08:23:40;101982.41;;;8.00;99.92
73063;BME280;61230;46.328;19.972;2023-01-01T08:26:14;101984.41;;;8.10;99.48
73063;BME280;61230;46.328;19.972;2023-01-01T08:28:45;101992.41;;;8.23;99.02
73063;BME280;61230;46.328;19.972;2023-01-01T08:31:18;101997.97;;;8.34;98.92
73063;BME280;61230;46.328;19.972;2023-01-01T08:33:46;101992.16;;;8.43;98.62
73063;BME280;61230;46.328;19.972;2023-01-01T08:36:13;101986.37;;;8.52;97.67
73063;BME280;61230;46.328;19.972;2023-01-01T08:38:42;101992.81;;;8.62;96.79
73063;BME280;61230;46.328;19.972;2023-01-01T08:41:10;101995.81;;;8.71;96.72
73063;BME280;61230;46.328;19.972;2023-01-01T08:43:38;101993.66;;;8.77;96.53
73063;BME280;61230;46.328;19.972;2023-01-01T08:46:05;101996.59;;;8.87;96.44
73063;BME280;61230;46.328;19.972;2023-01-01T08:48:33;102002.97;;;8.97;96.06
73063;BME280;61230;46.328;19.972;2023-01-01T08:51:00;101995.87;;;8.99;95.68
73063;BME280;61230;46.328;19.972;2023-01-01T08:53:30;102006.28;;;9.14;95.46
73063;BME280;61230;46.328;19.972;2023-01-01T08:56:00;102000.66;;;9.20;95.62
73063;BME280;61230;46.328;19.972;2023-01-01T08:58:29;102008.06;;;9.28;93.71
73063;BME280;61230;46.328;19.972;2023-01-01T09:00:57;102001.41;;;9.37;93.69
73063;BME280;61230;46.328;19.972;2023-01-01T09:03:26;102004.50;;;9.43;93.09
73063;BME280;61230;46.328;19.972;2023-01-01T09:05:54;101989.22;;;9.50;92.43
73063;BME280;61230;46.328;19.972;2023-01-01T09:08:21;101989.87;;;9.53;92.20
73063;BME280;61230;46.328;19.972;2023-01-01T09:10:49;101985.84;;;9.62;92.12
73063;BME280;61230;46.328;19.972;2023-01-01T09:13:19;101986.28;;;9.68;92.02
73063;BME280;61230;46.328;19.972;2023-01-01T09:15:47;101987.59;;;9.75;92.26
73063;BME280;61230;46.328;19.972;2023-01-01T09:18:15;101989.72;;;9.83;92.19
73063;BME280;61230;46.328;19.972;2023-01-01T09:20:43;101980.53;;;9.90;91.63
73063;BME280;61230;46.328;19.972;2023-01-01T09:23:10;101976.53;;;9.97;91.55
73063;BME280;61230;46.328;19.972;2023-01-01T09:25:38;101973.53;;;10.03;91.21
73063;BME280;61230;46.328;19.972;2023-01-01T09:28:09;101976.59;;;10.10;91.31
73063;BME280;61230;46.328;19.972;2023-01-01T09:30:37;101981.28;;;10.19;91.07
73063;BME280;61230;46.328;19.972;2023-01-01T09:33:05;101967.53;;;10.28;90.58
73063;BME280;61230;46.328;19.972;2023-01-01T09:35:33;101962.41;;;10.39;90.33
73063;BME280;61230;46.328;19.972;2023-01-01T09:38:01;101960.13;;;10.47;89.91
73063;BME280;61230;46.328;19.972;2023-01-01T09:46:03;101943.31;;;10.75;88.22
73063;BME280;61230;46.328;19.972;2023-01-01T09:48:37;101944.34;;;10.85;88.33
73063;BME280;61230;46.328;19.972;2023-01-01T09:51:12;101952.56;;;10.93;88.25
73063;BME280;61230;46.328;19.972;2023-01-01T09:54:00;101943.84;;;11.05;88.32
73063;BME280;61230;46.328;19.972;2023-01-01T09:56:34;101943.62;;;11.21;87.92
73063;BME280;61230;46.328;19.972;2023-01-01T09:59:02;101932.31;;;11.31;87.20
73063;BME280;61230;46.328;19.972;2023-01-01T10:01:49;101931.47;;;11.43;86.80
73063;BME280;61230;46.328;19.972;2023-01-01T10:04:44;101937.53;;;11.57;85.94
73063;BME280;61230;46.328;19.972;2023-01-01T10:10:20;101938.72;;;11.89;84.77
73063;BME280;61230;46.328;19.972;2023-01-01T10:13:02;101932.53;;;12.01;84.08
73063;BME280;61230;46.328;19.972;2023-01-01T10:15:38;101934.28;;;12.13;84.14
73063;BME280;61230;46.328;19.972;2023-01-01T10:18:16;101945.00;;;12.23;83.13
73063;BME280;61230;46.328;19.972;2023-01-01T10:20:52;101939.00;;;12.32;83.25
73063;BME280;61230;46.328;19.972;2023-01-01T10:23:24;101938.56;;;12.38;82.69
73063;BME280;61230;46.328;19.972;2023-01-01T10:25:56;101932.59;;;12.47;81.90
73063;BME280;61230;46.328;19.972;2023-01-01T10:28:41;101931.06;;;12.55;81.70
73063;BME280;61230;46.328;19.972;2023-01-01T10:33:46;101924.72;;;12.69;81.36
73063;BME280;61230;46.328;19.972;2023-01-01T10:36:16;101920.03;;;12.73;80.39
73063;BME280;61230;46.328;19.972;2023-01-01T10:38:47;101917.03;;;12.77;80.31
73063;BME280;61230;46.328;19.972;2023-01-01T10:41:16;101911.06;;;12.86;80.59
73063;BME280;61230;46.328;19.972;2023-01-01T10:43:47;101909.41;;;12.96;80.67
73063;BME280;61230;46.328;19.972;2023-01-01T10:46:19;101902.56;;;13.05;80.26
73063;BME280;61230;46.328;19.972;2023-01-01T10:49:08;101897.78;;;13.10;79.35
73063;BME280;61230;46.328;19.972;2023-01-01T10:51:47;101890.31;;;13.15;78.34
73063;BME280;61230;46.328;19.972;2023-01-01T10:54:37;101894.75;;;13.25;78.61
73063;BME280;61230;46.328;19.972;2023-01-01T10:57:20;101891.37;;;13.35;77.95
73063;BME280;61230;46.328;19.972;2023-01-01T11:00:24;101894.97;;;13.45;77.89
73063;BME280;61230;46.328;19.972;2023-01-01T11:03:13;101898.31;;;13.58;77.92
73063;BME280;61230;46.328;19.972;2023-01-01T11:08:34;101903.91;;;13.75;76.31
73063;BME280;61230;46.328;19.972;2023-01-01T11:11:04;101907.41;;;13.76;75.94
73063;BME280;61230;46.328;19.972;2023-01-01T11:13:32;101905.47;;;13.78;75.61
73063;BME280;61230;46.328;19.972;2023-01-01T11:16:01;101898.97;;;13.82;76.13
73063;BME280;61230;46.328;19.972;2023-01-01T11:18:34;101895.56;;;13.91;75.86
73063;BME280;61230;46.328;19.972;2023-01-01T11:21:04;101887.37;;;13.94;74.28
73063;BME280;61230;46.328;19.972;2023-01-01T11:23:35;101883.25;;;14.01;74.85
73063;BME280;61230;46.328;19.972;2023-01-01T11:28:40;101881.50;;;14.11;74.10
73063;BME280;61230;46.328;19.972;2023-01-01T11:33:42;101869.06;;;14.23;73.96
73063;BME280;61230;46.328;19.972;2023-01-01T11:36:19;101861.22;;;14.32;74.19
73063;BME280;61230;46.328;19.972;2023-01-01T11:39:05;101859.72;;;14.39;73.21
73063;BME280;61230;46.328;19.972;2023-01-01T11:41:45;101859.34;;;14.44;73.25
73063;BME280;61230;46.328;19.972;2023-01-01T11:46:50;101853.41;;;14.52;73.23
73063;BME280;61230;46.328;19.972;2023-01-01T11:49:24;101858.69;;;14.52;72.47
73063;BME280;61230;46.328;19.972;2023-01-01T11:51:54;101858.19;;;14.58;72.93
73063;BME280;61230;46.328;19.972;2023-01-01T11:54:31;101851.78;;;14.60;72.23
73063;BME280;61230;46.328;19.972;2023-01-01T11:57:12;101851.50;;;14.63;71.90
73063;BME280;61230;46.328;19.972;2023-01-01T12:00:01;101853.06;;;14.66;71.94
73063;BME280;61230;46.328;19.972;2023-01-01T12:02:44;101849.88;;;14.72;71.48
73063;BME280;61230;46.328;19.972;2023-01-01T12:05:35;101855.50;;;14.78;72.45
73063;BME280;61230;46.328;19.972;2023-01-01T12:08:08;101851.59;;;14.82;71.74
73063;BME280;61230;46.328;19.972;2023-01-01T12:10:45;101854.94;;;14.84;72.49
73063;BME280;61230;46.328;19.972;2023-01-01T12:13:18;101850.91;;;14.90;72.39
73063;BME280;61230;46.328;19.972;2023-01-01T12:16:14;101847.44;;;14.89;71.94
73063;BME280;61230;46.328;19.972;2023-01-01T12:18:48;101839.94;;;14.94;71.86
73063;BME280;61230;46.328;19.972;2023-01-01T12:21:26;101840.63;;;14.96;71.72
73063;BME280;61230;46.328;19.972;2023-01-01T12:23:54;101836.87;;;14.99;72.30
73063;BME280;61230;46.328;19.972;2023-01-01T12:37:13;101829.56;;;14.82;71.54
73063;BME280;61230;46.328;19.972;2023-01-01T12:45:28;101824.31;;;14.61;72.69
73063;BME280;61230;46.328;19.972;2023-01-01T12:48:15;101823.03;;;14.56;73.48
73063;BME280;61230;46.328;19.972;2023-01-01T12:54:02;101815.88;;;14.47;73.92
73063;BME280;61230;46.328;19.972;2023-01-01T12:56:42;101805.97;;;14.49;74.71
73063;BME280;61230;46.328;19.972;2023-01-01T12:59:15;101804.03;;;14.51;75.54
73063;BME280;61230;46.328;19.972;2023-01-01T13:01:44;101809.06;;;14.54;75.33
73063;BME280;61230;46.328;19.972;2023-01-01T13:04:19;101801.28;;;14.52;74.86
73063;BME280;61230;46.328;19.972;2023-01-01T13:06:49;101796.22;;;14.49;75.20
73063;BME280;61230;46.328;19.972;2023-01-01T13:09:20;101804.00;;;14.41;76.21
73063;BME280;61230;46.328;19.972;2023-01-01T13:11:56;101804.78;;;14.32;76.53
73063;BME280;61230;46.328;19.972;2023-01-01T13:14:25;101800.50;;;14.20;77.27
73063;BME280;61230;46.328;19.972;2023-01-01T13:16:54;101808.25;;;14.12;77.90
73063;BME280;61230;46.328;19.972;2023-01-01T13:19:35;101810.44;;;14.07;78.31
73063;BME280;61230;46.328;19.972;2023-01-01T13:25:17;101813.66;;;13.90;80.26
73063;BME280;61230;46.328;19.972;2023-01-01T13:33:20;101816.97;;;13.82;82.08
73063;BME280;61230;46.328;19.972;2023-01-01T14:00:38;101825.78;;;13.29;84.84
73063;BME280;61230;46.328;19.972;2023-01-01T14:03:17;101825.31;;;13.23;85.24
73063;BME280;61230;46.328;19.972;2023-01-01T14:05:49;101816.78;;;13.20;85.44
73063;BME280;61230;46.328;19.972;2023-01-01T14:10:58;101813.91;;;13.12;86.42
73063;BME280;61230;46.328;19.972;2023-01-01T14:13:38;101815.12;;;13.08;86.72
73063;BME280;61230;46.328;19.972;2023-01-01T14:16:09;101818.34;;;13.00;88.13
73063;BME280;61230;46.328;19.972;2023-01-01T14:18:52;101818.12;;;12.92;88.63
73063;BME280;61230;46.328;19.972;2023-01-01T14:21:24;101821.13;;;12.88;89.95
73063;BME280;61230;46.328;19.972;2023-01-01T14:24:19;101826.91;;;12.82;90.06
73063;BME280;61230;46.328;19.972;2023-01-01T14:26:49;101816.94;;;12.74;90.69
73063;BME280;61230;46.328;19.972;2023-01-01T14:29:29;101823.50;;;12.68;90.96
73063;BME280;61230;46.328;19.972;2023-01-01T14:31:59;101826.75;;;12.61;91.62
73063;BME280;61230;46.328;19.972;2023-01-01T14:34:30;101830.97;;;12.52;91.52
73063;BME280;61230;46.328;19.972;2023-01-01T14:37:00;101825.91;;;12.49;92.52
73063;BME280;61230;46.328;19.972;2023-01-01T14:42:10;101822.88;;;12.32;93.48
73063;BME280;61230;46.328;19.972;2023-01-01T14:44:42;101824.56;;;12.22;93.71
73063;BME280;61230;46.328;19.972;2023-01-01T14:47:23;101817.47;;;12.11;93.92
73063;BME280;61230;46.328;19.972;2023-01-01T14:49:55;101816.34;;;12.02;94.54
73063;BME280;61230;46.328;19.972;2023-01-01T14:52:28;101814.41;;;11.93;94.88
73063;BME280;61230;46.328;19.972;2023-01-01T14:54:58;101816.78;;;11.85;95.45